createdAt,value
2018-12-17T00:02:14.358Z,40.63
2018-12-17T00:04:41.256Z,40.70
2018-12-17T00:07:07.228Z,40.50
2018-12-17T00:09:33.966Z,41.01
2018-12-17T00:12:02.012Z,40.91
2018-12-17T00:14:28.885Z,40.98
2018-12-17T00:16:55.690Z,40.71
2018-12-17T00:19:22.433Z,40.90
2018-12-17T00:21:49.231Z,40.63
2018-12-17T00:24:15.983Z,40.63
2018-12-17T00:26:42.718Z,40.65
2018-12-17T00:29:09.563Z,40.62
2018-12-17T00:31:36.401Z,40.85
2018-12-17T00:34:02.410Z,41.20
2018-12-17T00:36:28.349Z,40.80
2018-12-17T00:38:54.326Z,40.67
2018-12-17T00:41:21.207Z,40.59
2018-12-17T00:43:48.130Z,40.56
2018-12-17T00:46:14.062Z,40.82
2018-12-17T00:48:40.055Z,40.73
2018-12-17T00:51:05.985Z,40.62
2018-12-17T00:53:32.844Z,40.64
2018-12-17T00:55:59.645Z,40.53
2018-12-17T00:58:25.755Z,40.42
2018-12-17T01:00:52.669Z,40.56
2018-12-17T01:03:18.598Z,40.76
2018-12-17T01:05:44.575Z,40.77
2018-12-17T01:08:10.509Z,40.51
2018-12-17T01:10:36.501Z,40.58
2018-12-17T01:13:02.615Z,40.71
2018-12-17T01:15:28.698Z,40.57
2018-12-17T01:17:55.556Z,40.56
2018-12-17T01:20:22.337Z,40.58
2018-12-17T01:22:48.273Z,40.86
2018-12-17T01:25:14.212Z,40.72
2018-12-17T01:27:40.142Z,40.58
2018-12-17T01:30:07.381Z,40.67
2018-12-17T01:32:34.522Z,40.58
2018-12-17T01:35:01.272Z,40.70
2018-12-17T01:37:27.201Z,40.80
2018-12-17T01:39:53.133Z,40.72
2018-12-17T01:42:19.114Z,40.62
2018-12-17T01:44:45.058Z,40.73
2018-12-17T01:47:11.790Z,40.72
2018-12-17T01:49:38.565Z,40.99
2018-12-17T01:52:05.370Z,40.78
2018-12-17T01:54:32.188Z,40.99
2018-12-17T01:56:58.125Z,40.67
2018-12-17T01:59:24.075Z,40.77
2018-12-17T02:01:50.937Z,41.19
2018-12-17T02:04:16.883Z,40.88
2018-12-17T02:06:43.852Z,40.54
2018-12-17T02:09:09.873Z,41.30
2018-12-17T02:11:35.968Z,40.58
2018-12-17T02:14:01.914Z,40.76
2018-12-17T02:16:27.871Z,41.02
2018-12-17T02:18:53.896Z,40.95
2018-12-17T02:21:20.761Z,40.88
2018-12-17T02:23:46.702Z,41.25
2018-12-17T02:26:12.645Z,40.72
2018-12-17T02:28:38.580Z,40.77
2018-12-17T02:31:04.528Z,40.92
2018-12-17T02:33:30.965Z,40.93
2018-12-17T02:35:57.871Z,40.93
2018-12-17T02:38:23.800Z,41.03
2018-12-17T02:40:49.747Z,40.82
2018-12-17T02:43:15.696Z,41.16
2018-12-17T02:45:41.633Z,40.98
2018-12-17T02:48:07.608Z,40.84
2018-12-17T02:50:33.577Z,40.80
2018-12-17T02:52:59.527Z,40.92
2018-12-17T02:55:25.477Z,40.75
2018-12-17T02:57:51.405Z,40.97
2018-12-17T03:00:17.346Z,40.76
2018-12-17T03:02:43.266Z,40.66
2018-12-17T03:05:10.172Z,40.92
2018-12-17T03:07:36.118Z,40.96
2018-12-17T03:10:03.786Z,41.15
2018-12-17T03:12:29.758Z,40.92
2018-12-17T03:14:55.774Z,40.89
2018-12-17T03:17:22.777Z,41.06
2018-12-17T03:19:49.607Z,41.03
2018-12-17T03:22:16.388Z,41.02
2018-12-17T03:24:42.334Z,40.99
2018-12-17T03:27:08.271Z,40.92
2018-12-17T03:29:35.154Z,41.27
2018-12-17T03:32:01.951Z,41.16
2018-12-17T03:34:28.841Z,41.03
2018-12-17T03:36:54.811Z,40.97
2018-12-17T03:39:20.749Z,41.11
2018-12-17T03:41:46.681Z,41.04
2018-12-17T03:44:13.448Z,41.29
2018-12-17T03:46:40.274Z,41.00
2018-12-17T03:49:07.096Z,41.10
2018-12-17T03:51:33.045Z,40.80
2018-12-17T03:53:59.038Z,41.11
2018-12-17T03:56:24.996Z,40.88
2018-12-17T03:58:51.018Z,40.84
2018-12-17T04:01:17.868Z,41.00
2018-12-17T04:03:43.815Z,41.22
2018-12-17T04:06:09.759Z,41.09
2018-12-17T04:08:36.728Z,40.73
2018-12-17T04:11:03.466Z,41.45
2018-12-17T04:13:29.465Z,41.31
2018-12-17T04:15:56.416Z,41.08
2018-12-17T04:18:22.855Z,41.16
2018-12-17T04:20:48.874Z,41.12
2018-12-17T04:23:14.977Z,41.27
2018-12-17T04:25:41.949Z,40.89
2018-12-17T04:28:15.726Z,41.17
2018-12-17T04:30:42.547Z,40.78
2018-12-17T04:33:08.479Z,41.01
2018-12-17T04:35:34.417Z,41.20
2018-12-17T04:38:01.191Z,41.02
2018-12-17T04:40:28.093Z,41.14
2018-12-17T04:42:54.926Z,41.21
2018-12-17T04:45:20.867Z,41.11
2018-12-17T04:47:47.697Z,41.10
2018-12-17T04:50:13.627Z,41.06
2018-12-17T04:52:39.582Z,41.09
2018-12-17T04:55:05.514Z,41.13
2018-12-17T04:57:33.266Z,41.05
2018-12-17T05:00:01.191Z,41.00
2018-12-17T05:02:27.174Z,40.80
2018-12-17T05:04:53.979Z,40.92
2018-12-17T05:07:19.965Z,41.11
2018-12-17T05:09:45.910Z,40.89
2018-12-17T05:12:12.786Z,40.84
2018-12-17T05:14:38.720Z,41.26
2018-12-17T05:17:04.687Z,41.05
2018-12-17T05:19:31.425Z,41.36
2018-12-17T05:21:57.433Z,41.15
2018-12-17T05:24:23.374Z,41.13
2018-12-17T05:26:49.339Z,41.22
2018-12-17T05:29:21.542Z,41.36
2018-12-17T05:31:44.203Z,41.08
2018-12-17T05:34:10.137Z,41.21
2018-12-17T05:36:36.090Z,41.41
2018-12-17T05:39:04.128Z,41.45
2018-12-17T05:41:32.212Z,41.37
2018-12-17T05:43:59.113Z,41.20
2018-12-17T05:46:25.038Z,41.12
2018-12-17T05:48:51.015Z,41.18
2018-12-17T05:51:17.933Z,41.30
2018-12-17T05:53:43.917Z,41.38
2018-12-17T05:56:10.726Z,41.20
2018-12-17T05:58:37.480Z,41.18
2018-12-17T06:01:03.410Z,41.40
2018-12-17T06:03:29.387Z,41.38
2018-12-17T06:05:55.323Z,41.23
2018-12-17T06:08:21.326Z,41.29
2018-12-17T06:10:47.257Z,40.98
2018-12-17T06:13:14.021Z,41.26
2018-12-17T06:15:39.955Z,41.12
2018-12-17T06:18:05.900Z,41.03
2018-12-17T06:20:31.838Z,41.11
2018-12-17T06:22:57.776Z,41.36
2018-12-17T06:25:23.730Z,41.23
2018-12-17T06:27:49.679Z,41.15
2018-12-17T06:30:15.669Z,41.18
2018-12-17T06:32:42.519Z,41.23
2018-12-17T06:35:09.287Z,41.23
2018-12-17T06:37:35.227Z,41.08
2018-12-17T06:40:01.279Z,41.23
2018-12-17T06:42:27.204Z,41.22
2018-12-17T06:44:53.143Z,41.46
2018-12-17T06:47:19.093Z,41.40
2018-12-17T06:49:45.039Z,41.52
2018-12-17T06:52:11.039Z,41.23
2018-12-17T06:54:37.702Z,41.17
2018-12-17T06:57:04.676Z,41.21
2018-12-17T06:59:30.957Z,41.25
2018-12-17T07:01:57.673Z,41.26
2018-12-17T07:04:23.972Z,41.03
2018-12-17T07:06:49.940Z,41.58
2018-12-17T07:09:15.857Z,41.18
2018-12-17T07:11:41.791Z,41.07
2018-12-17T07:14:07.719Z,41.43
2018-12-17T07:16:33.639Z,41.42
2018-12-17T07:18:59.580Z,41.43
2018-12-17T07:21:25.507Z,41.36
2018-12-17T07:23:51.440Z,41.36
2018-12-17T07:26:17.374Z,41.33
2018-12-17T07:28:43.310Z,41.47
2018-12-17T07:31:09.241Z,41.90
2018-12-17T07:33:35.178Z,41.57
2018-12-17T07:36:01.112Z,41.36
2018-12-17T07:38:27.067Z,41.45
2018-12-17T07:40:52.973Z,41.35
2018-12-17T07:43:19.934Z,41.52
2018-12-17T07:45:45.915Z,41.54
2018-12-17T07:48:12.636Z,41.42
2018-12-17T07:50:38.574Z,41.50
2018-12-17T07:53:05.456Z,41.57
2018-12-17T07:55:32.137Z,41.57
2018-12-17T07:57:58.063Z,41.52
2018-12-17T08:00:24.047Z,41.64
2018-12-17T08:02:50.999Z,41.34
2018-12-17T08:05:16.947Z,41.85
2018-12-17T08:07:44.261Z,41.52
2018-12-17T08:10:10.381Z,41.59
2018-12-17T08:12:37.156Z,41.91
2018-12-17T08:15:10.003Z,41.62
2018-12-17T08:17:35.930Z,41.44
2018-12-17T08:20:03.366Z,41.59
2018-12-17T08:22:31.284Z,41.77
2018-12-17T08:24:58.090Z,41.63
2018-12-17T08:27:24.061Z,41.72
2018-12-17T08:29:50.865Z,41.74
2018-12-17T08:32:17.779Z,41.64
2018-12-17T08:34:44.724Z,41.67
2018-12-17T08:37:11.521Z,41.58
2018-12-17T08:39:38.261Z,41.46
2018-12-17T08:42:04.196Z,41.54
2018-12-17T08:44:30.691Z,41.68
2018-12-17T08:46:56.680Z,41.77
2018-12-17T08:49:23.633Z,41.65
2018-12-17T08:51:49.571Z,41.64
2018-12-17T08:54:15.497Z,41.70
2018-12-17T08:56:42.259Z,41.50
2018-12-17T08:59:09.047Z,41.79
2018-12-17T09:01:35.944Z,41.77
2018-12-17T09:04:02.864Z,41.89
2018-12-17T09:06:28.946Z,41.93
2018-12-17T09:08:55.734Z,41.82
2018-12-17T09:11:22.472Z,41.78
2018-12-17T09:13:49.230Z,41.64
2018-12-17T09:16:15.160Z,41.88
2018-12-17T09:18:41.954Z,41.97
2018-12-17T09:21:07.894Z,42.00
2018-12-17T09:23:34.743Z,41.51
2018-12-17T09:26:01.024Z,41.91
2018-12-17T09:28:27.943Z,42.76
2018-12-17T09:30:54.693Z,41.84
2018-12-17T09:33:20.610Z,42.52
2018-12-17T09:35:47.548Z,42.16
2018-12-17T09:38:13.466Z,42.27
2018-12-17T09:40:39.395Z,42.16
2018-12-17T09:43:05.315Z,42.21
2018-12-17T09:45:31.237Z,42.40
2018-12-17T09:47:58.207Z,42.16
2018-12-17T09:50:25.004Z,42.13
2018-12-17T09:52:50.939Z,42.12
2018-12-17T09:55:16.877Z,42.38
2018-12-17T09:57:42.817Z,41.80
2018-12-17T10:00:08.941Z,42.20
2018-12-17T10:02:34.845Z,42.29
2018-12-17T10:05:01.639Z,42.21
2018-12-17T10:07:30.570Z,42.40
2018-12-17T10:09:55.643Z,42.41
2018-12-17T10:12:22.545Z,42.06
2018-12-17T10:14:49.385Z,42.29
2018-12-17T10:17:15.324Z,42.39
2018-12-17T10:19:41.461Z,42.90
2018-12-17T10:22:08.192Z,42.57
2018-12-17T10:24:34.265Z,42.59
2018-12-17T10:27:00.815Z,42.32
2018-12-17T10:29:26.756Z,42.85
2018-12-17T10:31:52.738Z,42.32
2018-12-17T10:34:19.635Z,42.35
2018-12-17T10:36:46.451Z,42.48
2018-12-17T10:39:13.210Z,42.43
2018-12-17T10:41:39.188Z,42.52
2018-12-17T10:44:05.123Z,42.73
2018-12-17T10:46:32.011Z,42.82
2018-12-17T10:48:57.954Z,42.49
2018-12-17T10:51:24.761Z,42.98
2018-12-17T10:53:50.695Z,42.81
2018-12-17T10:56:17.534Z,42.49
2018-12-17T10:58:44.398Z,42.70
2018-12-17T11:01:16.457Z,42.58
2018-12-17T11:03:42.839Z,43.25
2018-12-17T11:06:09.532Z,44.18
2018-12-17T11:08:36.450Z,43.00
2018-12-17T11:11:03.259Z,43.29
2018-12-17T11:13:29.212Z,44.36
2018-12-17T11:15:55.182Z,44.09
2018-12-17T11:18:21.163Z,43.88
2018-12-17T11:20:47.153Z,43.68
2018-12-17T11:23:13.916Z,43.31
2018-12-17T11:25:39.881Z,43.98
2018-12-17T11:28:05.862Z,42.70
2018-12-17T11:30:32.855Z,43.11
2018-12-17T11:32:58.794Z,43.49
2018-12-17T11:35:24.718Z,43.16
2018-12-17T11:37:50.657Z,43.09
2018-12-17T11:40:16.590Z,42.98
2018-12-17T11:42:42.519Z,42.90
2018-12-17T11:45:09.466Z,42.85
2018-12-17T11:47:36.256Z,42.84
2018-12-17T11:50:03.740Z,43.34
2018-12-17T11:52:30.674Z,43.44
2018-12-17T11:54:56.597Z,43.07
2018-12-17T11:57:24.573Z,43.09
2018-12-17T11:59:50.511Z,43.06
2018-12-17T12:02:16.481Z,43.24
2018-12-17T12:04:42.414Z,43.19
2018-12-17T12:07:09.575Z,43.06
2018-12-17T12:09:36.262Z,43.08
2018-12-17T12:12:02.187Z,43.45
2018-12-17T12:14:28.148Z,43.37
2018-12-17T12:16:54.154Z,43.18
2018-12-17T12:19:20.081Z,43.28
2018-12-17T12:21:46.021Z,43.32
2018-12-17T12:24:11.891Z,43.32
2018-12-17T12:26:38.628Z,43.34
2018-12-17T12:29:04.574Z,43.51
2018-12-17T12:31:31.088Z,43.34
2018-12-17T12:33:57.801Z,43.21
2018-12-17T12:36:24.686Z,43.32
2018-12-17T12:38:50.701Z,43.52
2018-12-17T12:41:17.543Z,43.03
2018-12-17T12:43:44.356Z,43.44
2018-12-17T12:46:11.310Z,43.55
2018-12-17T12:48:38.094Z,43.50
2018-12-17T12:51:04.028Z,43.60
2018-12-17T12:53:29.959Z,43.54
2018-12-17T12:55:56.792Z,43.80
2018-12-17T12:58:22.694Z,43.62
2018-12-17T13:00:49.459Z,43.60
2018-12-17T13:03:15.384Z,43.45
2018-12-17T13:05:41.415Z,43.52
2018-12-17T13:08:08.195Z,43.61
2018-12-17T13:10:34.257Z,43.38
2018-12-17T13:13:00.789Z,43.50
2018-12-17T13:15:26.720Z,43.56
2018-12-17T13:17:52.646Z,43.57
2018-12-17T13:20:18.573Z,43.61
2018-12-17T13:22:44.481Z,43.54
2018-12-17T13:25:12.426Z,43.57
2018-12-17T13:27:38.336Z,43.32
2018-12-17T13:30:05.347Z,43.70
2018-12-17T13:32:32.204Z,43.75
2018-12-17T13:34:58.139Z,43.94
2018-12-17T13:37:24.072Z,43.68
2018-12-17T13:39:50.951Z,43.86
2018-12-17T13:42:16.886Z,43.64
2018-12-17T13:44:43.837Z,43.73
2018-12-17T13:47:09.774Z,43.91
2018-12-17T13:49:36.615Z,43.75
2018-12-17T13:52:08.729Z,43.70
2018-12-17T13:54:34.706Z,43.70
2018-12-17T13:57:01.710Z,43.85
2018-12-17T13:59:27.647Z,43.69
2018-12-17T14:01:53.571Z,43.94
2018-12-17T14:04:19.505Z,43.67
2018-12-17T14:06:45.471Z,43.51
2018-12-17T14:09:12.321Z,43.61
2018-12-17T14:11:38.295Z,43.86
2018-12-17T14:14:05.059Z,43.60
2018-12-17T14:16:38.534Z,43.85
2018-12-17T14:19:24.428Z,43.68
2018-12-17T14:21:55.672Z,43.66
2018-12-17T14:24:22.512Z,43.83
2018-12-17T14:26:48.585Z,43.80
2018-12-17T14:29:15.482Z,43.83
2018-12-17T14:31:41.374Z,43.68
2018-12-17T14:34:07.355Z,44.04
2018-12-17T14:36:34.222Z,44.16
2018-12-17T14:39:03.121Z,43.98
2018-12-17T14:41:29.061Z,43.85
2018-12-17T14:43:58.096Z,43.97
2018-12-17T14:46:24.041Z,43.78
2018-12-17T14:48:49.979Z,43.82
2018-12-17T14:51:15.942Z,43.97
2018-12-17T14:53:41.894Z,43.99
2018-12-17T14:56:07.822Z,44.16
2018-12-17T14:58:34.782Z,43.76
2018-12-17T15:01:01.194Z,43.88
2018-12-17T15:03:28.089Z,44.20
2018-12-17T15:05:54.866Z,43.87
2018-12-17T15:08:21.588Z,43.93
2018-12-17T15:10:47.519Z,43.93
2018-12-17T15:13:13.448Z,43.95
2018-12-17T15:15:40.281Z,44.01
2018-12-17T15:18:06.215Z,44.14
2018-12-17T15:20:32.196Z,43.79
2018-12-17T15:22:58.170Z,43.93
2018-12-17T15:25:31.195Z,44.08
2018-12-17T15:27:57.165Z,43.95
2018-12-17T15:30:23.116Z,43.98
2018-12-17T15:32:49.060Z,43.99
2018-12-17T15:35:22.111Z,44.11
2018-12-17T15:37:48.044Z,43.85
2018-12-17T15:40:14.033Z,44.03
2018-12-17T15:42:41.179Z,44.03
2018-12-17T15:45:08.046Z,43.70
2018-12-17T15:47:33.983Z,44.04
2018-12-17T15:49:59.927Z,43.91
2018-12-17T15:52:25.860Z,44.01
2018-12-17T15:54:51.792Z,43.92
2018-12-17T15:57:18.743Z,44.00
2018-12-17T15:59:45.622Z,44.03
2018-12-17T16:02:11.560Z,43.84
2018-12-17T16:04:38.529Z,43.72
2018-12-17T16:07:04.472Z,44.00
2018-12-17T16:09:31.112Z,43.88
2018-12-17T16:11:57.041Z,44.26
2018-12-17T16:14:23.991Z,44.18
2018-12-17T16:16:50.753Z,43.92
2018-12-17T16:19:16.683Z,44.16
2018-12-17T16:21:42.644Z,44.23
2018-12-17T16:24:09.478Z,44.14
2018-12-17T16:26:35.407Z,44.08
2018-12-17T16:29:01.336Z,44.14
2018-12-17T16:31:28.106Z,44.08
2018-12-17T16:33:54.916Z,44.01
2018-12-17T16:36:20.813Z,44.06
2018-12-17T16:38:46.705Z,44.39
2018-12-17T16:41:12.634Z,45.04
2018-12-17T16:43:39.504Z,44.83
2018-12-17T16:46:06.365Z,44.38
2018-12-17T16:48:32.303Z,43.97
2018-12-17T16:50:59.184Z,43.88
2018-12-17T16:53:25.148Z,44.03
2018-12-17T16:55:51.870Z,44.05
2018-12-17T16:58:17.804Z,44.09
2018-12-17T17:00:43.777Z,43.98
2018-12-17T17:03:10.649Z,44.02
2018-12-17T17:05:36.681Z,44.05
2018-12-17T17:08:02.619Z,44.56
2018-12-17T17:10:28.600Z,44.11
2018-12-17T17:12:54.529Z,44.29
2018-12-17T17:15:20.465Z,44.50
2018-12-17T17:17:46.414Z,44.21
2018-12-17T17:20:12.342Z,44.06
2018-12-17T17:22:38.280Z,44.08
2018-12-17T17:25:04.705Z,44.19
2018-12-17T17:27:31.651Z,44.57
2018-12-17T17:29:57.604Z,44.66
2018-12-17T17:32:23.584Z,44.28
2018-12-17T17:34:49.528Z,44.39
2018-12-17T17:37:16.462Z,44.42
2018-12-17T17:39:42.403Z,44.26
2018-12-17T17:42:08.387Z,44.09
2018-12-17T17:44:35.168Z,44.26
2018-12-17T17:47:03.452Z,44.34
2018-12-17T17:49:29.390Z,44.12
2018-12-17T17:51:55.324Z,44.21
2018-12-17T17:54:21.281Z,44.12
2018-12-17T17:56:47.208Z,44.19
2018-12-17T17:59:14.192Z,44.30
2018-12-17T18:01:40.214Z,44.05
2018-12-17T18:04:07.128Z,44.11
2018-12-17T18:06:33.094Z,44.14
2018-12-17T18:08:59.980Z,44.34
2018-12-17T18:11:25.912Z,44.42
2018-12-17T18:13:51.876Z,44.34
2018-12-17T18:16:17.792Z,44.36
2018-12-17T18:18:43.797Z,44.23
2018-12-17T18:21:10.523Z,44.19
2018-12-17T18:23:36.509Z,44.55
2018-12-17T18:26:02.530Z,44.27
2018-12-17T18:28:28.641Z,44.24
2018-12-17T18:30:55.621Z,44.96
2018-12-17T18:33:21.561Z,44.47
2018-12-17T18:35:47.502Z,44.65
2018-12-17T18:38:13.425Z,45.01
2018-12-17T18:40:39.388Z,44.40
2018-12-17T18:43:05.324Z,44.46
2018-12-17T18:45:32.134Z,44.34
2018-12-17T18:47:58.072Z,44.40
2018-12-17T18:50:24.871Z,44.21
2018-12-17T18:52:51.812Z,44.63
2018-12-17T18:55:18.606Z,44.35
2018-12-17T18:57:44.533Z,44.32
2018-12-17T19:00:10.817Z,44.16
2018-12-17T19:02:37.730Z,44.31
2018-12-17T19:05:03.669Z,44.31
2018-12-17T19:07:29.667Z,44.18
2018-12-17T19:09:55.612Z,44.30
2018-12-17T19:12:21.528Z,44.30
2018-12-17T19:14:47.458Z,44.44
2018-12-17T19:17:14.347Z,44.19
2018-12-17T19:19:41.202Z,44.32
2018-12-17T19:22:08.159Z,44.32
2018-12-17T19:24:34.941Z,44.23
2018-12-17T19:27:02.130Z,44.38
2018-12-17T19:29:28.909Z,44.50
2018-12-17T19:31:54.846Z,44.28
2018-12-17T19:34:20.815Z,44.36
2018-12-17T19:36:47.651Z,44.47
2018-12-17T19:39:13.614Z,44.34
2018-12-17T19:41:40.915Z,44.40
2018-12-17T19:44:06.882Z,44.35
2018-12-17T19:46:33.811Z,44.37
2018-12-17T19:49:01.361Z,44.78
2018-12-17T19:51:28.405Z,44.51
2018-12-17T19:53:54.396Z,44.37
2018-12-17T19:56:20.346Z,44.38
2018-12-17T19:58:47.172Z,44.45
2018-12-17T20:01:13.938Z,44.39
2018-12-17T20:03:40.678Z,44.37
2018-12-17T20:06:06.664Z,44.32
2018-12-17T20:08:32.621Z,44.58
2018-12-17T20:10:59.368Z,44.35
2018-12-17T20:13:25.287Z,44.70
2018-12-17T20:15:52.020Z,44.29
2018-12-17T20:18:18.785Z,44.34
2018-12-17T20:20:45.713Z,44.55
2018-12-17T20:23:12.469Z,44.48
2018-12-17T20:25:38.464Z,44.43
2018-12-17T20:28:05.332Z,44.59
2018-12-17T20:30:32.165Z,44.21
2018-12-17T20:32:58.935Z,44.34
2018-12-17T20:35:25.693Z,44.35
2018-12-17T20:37:51.633Z,44.63
2018-12-17T20:40:18.535Z,44.32
2018-12-17T20:42:44.479Z,44.34
2018-12-17T20:45:11.234Z,44.30
2018-12-17T20:47:38.120Z,44.55
2018-12-17T20:50:05.391Z,44.60
2018-12-17T20:52:31.328Z,44.23
2018-12-17T20:54:57.257Z,44.53
2018-12-17T20:57:23.221Z,44.31
2018-12-17T20:59:49.160Z,44.58
2018-12-17T21:02:15.144Z,44.37
2018-12-17T21:04:41.094Z,44.76
2018-12-17T21:07:07.042Z,44.25
2018-12-17T21:09:32.966Z,44.50
2018-12-17T21:11:58.888Z,44.42
2018-12-17T21:14:24.795Z,44.09
2018-12-17T21:16:50.724Z,44.29
2018-12-17T21:19:16.662Z,44.93
2018-12-17T21:21:43.651Z,44.47
2018-12-17T21:24:10.415Z,44.42
2018-12-17T21:26:36.349Z,44.40
2018-12-17T21:29:02.292Z,44.29
2018-12-17T21:31:28.225Z,44.35
2018-12-17T21:33:54.559Z,44.63
2018-12-17T21:36:20.483Z,44.48
2018-12-17T21:38:46.410Z,44.53
2018-12-17T21:41:12.339Z,44.54
2018-12-17T21:43:38.271Z,44.57
2018-12-17T21:46:04.181Z,44.38
2018-12-17T21:48:30.837Z,44.41
2018-12-17T21:50:56.772Z,44.56
2018-12-17T21:53:22.772Z,44.60
2018-12-17T21:55:48.718Z,44.52
2018-12-17T21:58:14.790Z,44.47
2018-12-17T22:00:40.728Z,44.64
2018-12-17T22:03:13.111Z,44.48
2018-12-17T22:05:35.596Z,44.42
2018-12-17T22:08:01.531Z,44.49
2018-12-17T22:10:29.497Z,44.60
2018-12-17T22:12:55.512Z,44.65
2018-12-17T22:15:21.450Z,44.56
2018-12-17T22:17:47.447Z,44.63
2018-12-17T22:20:13.380Z,44.45
2018-12-17T22:22:39.310Z,44.52
2018-12-17T22:25:06.189Z,44.59
2018-12-17T22:27:32.133Z,44.67
2018-12-17T22:29:59.055Z,44.54
2018-12-17T22:32:24.984Z,44.50
2018-12-17T22:34:51.777Z,44.67
2018-12-17T22:37:17.695Z,44.61
2018-12-17T22:39:43.668Z,44.72
2018-12-17T22:42:09.598Z,44.75
2018-12-17T22:44:35.522Z,44.82
2018-12-17T22:47:01.446Z,44.73
2018-12-17T22:49:27.411Z,44.74
2018-12-17T22:51:53.503Z,44.63
2018-12-17T22:54:20.286Z,45.08
2018-12-17T22:56:46.219Z,44.58
2018-12-17T22:59:13.169Z,44.68
2018-12-17T23:01:39.964Z,44.60
2018-12-17T23:04:06.043Z,44.70
2018-12-17T23:06:32.948Z,44.56
2018-12-17T23:09:02.358Z,44.86
2018-12-17T23:11:36.475Z,44.70
2018-12-17T23:14:08.574Z,44.54
2018-12-17T23:16:40.799Z,44.87
2018-12-17T23:19:07.609Z,44.69
2018-12-17T23:21:33.737Z,44.81
2018-12-17T23:23:59.738Z,44.62
2018-12-17T23:26:25.839Z,44.58
2018-12-17T23:28:52.772Z,44.67
2018-12-17T23:31:18.673Z,44.55
2018-12-17T23:33:45.579Z,45.01
2018-12-17T23:36:12.501Z,44.86
2018-12-17T23:38:39.271Z,44.83
2018-12-17T23:41:06.092Z,44.88
2018-12-17T23:43:32.902Z,44.54
2018-12-17T23:45:58.830Z,45.01
2018-12-17T23:48:24.771Z,44.96
2018-12-17T23:50:50.690Z,44.89
2018-12-17T23:53:17.461Z,44.93
2018-12-17T23:55:43.403Z,45.27
2018-12-17T23:58:09.346Z,44.67
